createdAt,value
2018-11-11T00:00:58.440Z,27.20
2018-11-11T00:03:26.930Z,28.50
2018-11-11T00:05:55.526Z,24.17
2018-11-11T00:08:23.944Z,24.90
2018-11-11T00:10:52.492Z,23.67
2018-11-11T00:13:21.101Z,23.97
2018-11-11T00:15:49.547Z,24.43
2018-11-11T00:18:18.040Z,24.13
2018-11-11T00:20:47.138Z,25.03
2018-11-11T00:23:15.711Z,24.73
2018-11-11T00:25:44.206Z,25.50
2018-11-11T00:28:12.820Z,24.27
2018-11-11T00:30:41.473Z,26.17
2018-11-11T00:33:09.984Z,27.07
2018-11-11T00:35:38.440Z,23.80
2018-11-11T00:38:07.776Z,23.77
2018-11-11T00:40:36.196Z,22.90
2018-11-11T00:43:05.160Z,24.93
2018-11-11T00:45:33.592Z,25.83
2018-11-11T00:48:02.047Z,27.60
2018-11-11T00:50:30.487Z,24.90
2018-11-11T00:52:58.987Z,25.17
2018-11-11T00:55:30.992Z,25.77
2018-11-11T00:57:59.641Z,25.13
2018-11-11T01:00:28.110Z,28.63
2018-11-11T01:02:56.616Z,30.20
2018-11-11T01:05:25.584Z,28.20
2018-11-11T01:07:54.198Z,29.10
2018-11-11T01:10:22.668Z,33.37
2018-11-11T01:12:51.075Z,33.87
2018-11-11T01:15:19.525Z,29.43
2018-11-11T01:17:47.924Z,28.47
2018-11-11T01:20:17.473Z,28.93
2018-11-11T01:22:46.539Z,33.60
2018-11-11T01:25:16.251Z,32.63
2018-11-11T01:27:44.822Z,31.10
2018-11-11T01:30:13.300Z,26.90
2018-11-11T01:32:42.333Z,24.77
2018-11-11T01:35:12.428Z,26.90
2018-11-11T01:37:41.626Z,28.77
2018-11-11T01:40:10.236Z,27.27
2018-11-11T01:42:38.863Z,26.00
2018-11-11T01:45:10.272Z,26.97
2018-11-11T01:47:38.724Z,31.23
2018-11-11T01:50:07.976Z,28.77
2018-11-11T01:52:36.468Z,32.17
2018-11-11T01:55:05.064Z,30.88
2018-11-11T01:57:33.515Z,33.00
2018-11-11T02:00:02.000Z,29.87
2018-11-11T02:02:30.483Z,25.97
2018-11-11T02:04:58.969Z,28.40
2018-11-11T02:07:27.558Z,29.33
2018-11-11T02:09:56.059Z,33.70
2018-11-11T02:12:24.533Z,31.73
2018-11-11T02:14:53.119Z,30.80
2018-11-11T02:17:21.599Z,33.77
2018-11-11T02:19:50.104Z,32.63
2018-11-11T02:22:18.571Z,36.77
2018-11-11T02:24:47.053Z,39.27
2018-11-11T02:27:15.494Z,41.27
2018-11-11T02:29:44.026Z,39.23
2018-11-11T02:32:12.512Z,37.67
2018-11-11T02:34:40.955Z,33.70
2018-11-11T02:37:09.378Z,34.17
2018-11-11T02:39:37.837Z,35.53
2018-11-11T02:42:06.317Z,33.63
2018-11-11T02:44:34.720Z,39.23
2018-11-11T02:47:03.315Z,31.37
2018-11-11T02:49:31.801Z,39.40
2018-11-11T02:52:00.216Z,42.23
2018-11-11T02:54:28.771Z,42.53
2018-11-11T02:56:57.258Z,42.53
2018-11-11T02:59:25.751Z,38.03
2018-11-11T03:01:54.163Z,39.63
2018-11-11T03:04:22.628Z,35.37
2018-11-11T03:06:51.097Z,34.27
2018-11-11T03:09:19.592Z,34.60
2018-11-11T03:11:48.045Z,34.13
2018-11-11T03:14:16.550Z,38.17
2018-11-11T03:16:45.034Z,36.20
2018-11-11T03:19:13.467Z,36.43
2018-11-11T03:21:42.005Z,39.70
2018-11-11T03:24:10.442Z,38.87
2018-11-11T03:26:39.178Z,39.57
2018-11-11T03:29:07.693Z,36.07
2018-11-11T03:31:36.149Z,41.53
2018-11-11T03:34:05.146Z,49.20
2018-11-11T03:36:33.585Z,45.30
2018-11-11T03:39:02.188Z,41.57
2018-11-11T03:41:30.705Z,45.90
2018-11-11T03:43:59.268Z,52.43
2018-11-11T03:46:27.864Z,55.37
2018-11-11T03:48:56.362Z,54.30
2018-11-11T03:51:24.840Z,49.77
2018-11-11T03:53:53.330Z,48.27
2018-11-11T03:56:21.736Z,49.43
2018-11-11T03:58:50.222Z,48.53
2018-11-11T04:01:18.635Z,48.50
2018-11-11T04:03:47.189Z,46.27
2018-11-11T04:06:15.686Z,46.37
2018-11-11T04:08:44.392Z,52.40
2018-11-11T04:11:12.861Z,44.80
2018-11-11T04:13:41.288Z,47.07
2018-11-11T04:16:09.884Z,49.10
2018-11-11T04:18:38.998Z,48.70
2018-11-11T04:21:07.491Z,44.77
2018-11-11T04:23:35.954Z,46.43
2018-11-11T04:26:04.559Z,41.60
2018-11-11T04:31:09.310Z,37.43
2018-11-11T04:33:37.788Z,44.60
2018-11-11T04:36:06.296Z,45.10
2018-11-11T04:38:34.869Z,39.13
2018-11-11T04:41:03.351Z,37.33
2018-11-11T04:43:31.800Z,42.90
2018-11-11T04:46:00.290Z,51.43
2018-11-11T04:48:28.699Z,46.83
2018-11-11T04:50:57.183Z,39.80
2018-11-11T04:53:25.613Z,40.67
2018-11-11T04:55:54.253Z,40.00
2018-11-11T04:58:22.751Z,34.90
2018-11-11T05:00:51.282Z,35.00
2018-11-11T05:03:19.742Z,31.23
2018-11-11T05:05:48.296Z,33.60
2018-11-11T05:08:16.760Z,41.30
2018-11-11T05:10:45.172Z,38.00
2018-11-11T05:13:13.650Z,37.00
2018-11-11T05:15:42.106Z,35.83
2018-11-11T05:18:10.542Z,34.17
2018-11-11T05:20:38.951Z,33.97
2018-11-11T05:23:07.491Z,34.10
2018-11-11T05:25:35.928Z,35.83
2018-11-11T05:28:04.457Z,38.27
2018-11-11T05:30:32.893Z,32.27
2018-11-11T05:33:01.320Z,34.77
2018-11-11T05:35:29.909Z,33.70
2018-11-11T05:37:58.323Z,38.33
2018-11-11T05:40:26.881Z,32.27
2018-11-11T05:42:55.300Z,32.87
2018-11-11T05:45:23.855Z,34.80
2018-11-11T05:47:52.292Z,35.67
2018-11-11T05:50:20.706Z,31.77
2018-11-11T05:52:49.714Z,32.90
2018-11-11T05:55:18.164Z,33.57
2018-11-11T05:57:46.601Z,30.77
2018-11-11T06:00:16.402Z,36.20
2018-11-11T06:02:45.304Z,28.93
2018-11-11T06:05:14.802Z,33.30
2018-11-11T06:07:43.263Z,31.30
2018-11-11T06:10:12.999Z,33.47
2018-11-11T06:12:41.586Z,28.67
2018-11-11T06:15:11.365Z,27.50
2018-11-11T06:17:39.988Z,27.53
2018-11-11T06:20:11.136Z,31.33
2018-11-11T06:22:40.129Z,32.83
2018-11-11T06:25:08.903Z,34.03
2018-11-11T06:27:37.495Z,31.10
2018-11-11T06:30:06.813Z,29.27
2018-11-11T06:32:35.503Z,32.93
2018-11-11T06:35:04.051Z,29.00
2018-11-11T06:37:32.989Z,29.13
2018-11-11T06:40:01.551Z,32.17
2018-11-11T06:42:30.039Z,23.10
2018-11-11T06:44:58.478Z,29.87
2018-11-11T06:47:26.981Z,30.73
2018-11-11T06:49:55.519Z,31.70
2018-11-11T06:52:24.099Z,29.60
2018-11-11T06:54:52.587Z,30.83
2018-11-11T06:57:21.195Z,26.47
2018-11-11T06:59:49.766Z,30.20
2018-11-11T07:02:18.351Z,35.20
2018-11-11T07:04:46.760Z,29.67
2018-11-11T07:07:15.436Z,33.37
2018-11-11T07:09:43.842Z,29.93
2018-11-11T07:12:12.283Z,26.90
2018-11-11T07:14:40.769Z,26.87
2018-11-11T07:17:09.240Z,22.30
2018-11-11T07:19:37.708Z,21.17
2018-11-11T07:22:06.438Z,24.33
2018-11-11T07:24:34.921Z,18.77
2018-11-11T07:27:03.401Z,18.67
2018-11-11T07:29:31.878Z,21.07
2018-11-11T07:32:00.368Z,18.60
2018-11-11T07:34:28.840Z,15.90
2018-11-11T07:36:57.306Z,18.20
2018-11-11T07:39:25.758Z,15.27
2018-11-11T07:41:54.205Z,16.73
2018-11-11T07:44:22.777Z,13.33
2018-11-11T07:46:51.242Z,16.00
2018-11-11T07:49:19.861Z,16.83
2018-11-11T07:51:48.484Z,15.20
2018-11-11T07:54:17.041Z,13.93
2018-11-11T07:56:45.731Z,14.23
2018-11-11T07:59:14.215Z,14.53
2018-11-11T08:01:42.892Z,13.70
2018-11-11T08:04:11.275Z,16.93
2018-11-11T08:06:39.876Z,15.83
2018-11-11T08:09:08.412Z,16.47
2018-11-11T08:11:48.220Z,17.00
2018-11-11T08:14:16.780Z,17.90
2018-11-11T08:16:45.334Z,18.57
2018-11-11T08:19:14.056Z,15.53
2018-11-11T08:21:42.557Z,16.80
2018-11-11T08:24:11.016Z,20.23
2018-11-11T08:26:39.479Z,17.17
2018-11-11T08:29:08.031Z,15.97
2018-11-11T08:31:36.679Z,20.00
2018-11-11T08:34:05.294Z,16.93
2018-11-11T08:36:33.742Z,18.80
2018-11-11T08:39:02.816Z,20.43
2018-11-11T08:41:31.230Z,20.53
2018-11-11T08:43:59.689Z,20.60
2018-11-11T08:46:28.228Z,21.40
2018-11-11T08:48:56.745Z,17.30
2018-11-11T08:51:25.189Z,17.43
2018-11-11T08:53:53.707Z,20.73
2018-11-11T08:56:22.263Z,19.07
2018-11-11T08:58:50.753Z,16.73
2018-11-11T09:01:19.244Z,22.97
2018-11-11T09:03:47.665Z,20.17
2018-11-11T09:06:16.168Z,17.03
2018-11-11T09:08:44.628Z,19.10
2018-11-11T09:11:13.127Z,19.67
2018-11-11T09:13:41.664Z,17.77
2018-11-11T09:16:10.233Z,21.20
2018-11-11T09:18:38.682Z,19.30
2018-11-11T09:21:08.138Z,18.97
2018-11-11T09:23:36.877Z,16.30
2018-11-11T09:26:05.945Z,16.17
2018-11-11T09:28:34.413Z,16.87
2018-11-11T09:31:03.312Z,16.00
2018-11-11T09:33:31.746Z,16.40
2018-11-11T09:36:00.276Z,15.50
2018-11-11T09:38:29.055Z,17.67
2018-11-11T09:40:57.549Z,13.83
2018-11-11T09:43:26.018Z,16.17
2018-11-11T09:45:54.490Z,16.47
2018-11-11T09:48:23.108Z,37.03
2018-11-11T09:50:51.567Z,25.43
2018-11-11T09:53:20.282Z,20.13
2018-11-11T09:55:48.755Z,19.20
2018-11-11T09:58:17.253Z,20.07
2018-11-11T10:00:45.744Z,19.20
2018-11-11T10:03:22.614Z,26.87
2018-11-11T10:05:55.058Z,27.30
2018-11-11T10:09:01.165Z,28.80
2018-11-11T10:11:35.892Z,29.83
2018-11-11T10:15:07.452Z,24.20
2018-11-11T10:17:42.520Z,26.70
2018-11-11T10:20:47.585Z,25.77
2018-11-11T10:23:29.578Z,23.60
2018-11-11T10:26:03.353Z,30.73
2018-11-11T10:29:40.291Z,25.90
2018-11-11T10:32:25.150Z,26.13
2018-11-11T10:35:00.764Z,21.20
2018-11-11T10:37:39.142Z,22.73
2018-11-11T10:40:16.216Z,19.00
2018-11-11T10:43:20.022Z,19.17
2018-11-11T10:45:56.742Z,14.73
2018-11-11T10:48:28.291Z,15.70
2018-11-11T10:51:01.475Z,13.07
2018-11-11T10:53:29.945Z,17.77
2018-11-11T10:55:58.524Z,11.90
2018-11-11T10:58:27.765Z,11.03
2018-11-11T11:01:01.535Z,11.63
2018-11-11T11:03:32.383Z,10.33
2018-11-11T11:06:01.625Z,10.27
2018-11-11T11:08:30.302Z,12.13
2018-11-11T11:10:58.998Z,12.50
2018-11-11T11:13:28.268Z,9.47
2018-11-11T11:15:57.030Z,19.90
2018-11-11T11:18:25.866Z,31.67
2018-11-11T11:20:54.364Z,45.17
2018-11-11T11:23:23.457Z,14.93
2018-11-11T11:25:51.951Z,21.77
2018-11-11T11:28:21.213Z,47.20
2018-11-11T11:30:49.833Z,14.40
2018-11-11T11:33:18.389Z,7.47
2018-11-11T11:35:46.952Z,14.87
2018-11-11T11:38:15.395Z,12.90
2018-11-11T11:40:43.901Z,8.90
2018-11-11T11:43:12.460Z,6.83
2018-11-11T11:45:40.915Z,5.67
2018-11-11T11:48:09.446Z,5.30
2018-11-11T11:50:38.298Z,4.80
2018-11-11T11:53:06.812Z,7.27
2018-11-11T11:55:35.306Z,24.60
2018-11-11T11:58:28.703Z,24.93
2018-11-11T12:00:57.434Z,22.35
2018-11-11T12:03:25.900Z,8.53
2018-11-11T12:05:54.514Z,33.43
2018-11-11T12:08:23.306Z,13.53
2018-11-11T12:10:51.829Z,23.57
2018-11-11T12:13:20.681Z,16.80
2018-11-11T12:15:49.241Z,7.50
2018-11-11T12:18:17.689Z,8.90
2018-11-11T12:20:46.228Z,11.70
2018-11-11T12:23:14.724Z,16.37
2018-11-11T12:25:43.316Z,9.60
2018-11-11T12:28:11.928Z,3.63
2018-11-11T12:30:40.523Z,11.83
2018-11-11T12:33:09.035Z,10.00
2018-11-11T12:35:37.476Z,8.67
2018-11-11T12:38:05.914Z,4.67
2018-11-11T12:40:34.742Z,8.77
2018-11-11T12:43:03.596Z,4.73
2018-11-11T12:45:32.214Z,6.77
2018-11-11T12:48:00.971Z,7.30
2018-11-11T12:50:29.619Z,5.90
2018-11-11T12:52:58.095Z,4.67
2018-11-11T12:55:27.462Z,13.10
2018-11-11T12:57:56.696Z,6.73
2018-11-11T13:00:25.189Z,17.40
2018-11-11T13:02:53.855Z,4.57
2018-11-11T13:05:22.456Z,6.57
2018-11-11T13:07:50.994Z,12.10
2018-11-11T13:10:19.546Z,5.83
2018-11-11T13:12:48.069Z,7.07
2018-11-11T13:15:16.567Z,7.77
2018-11-11T13:17:45.012Z,5.07
2018-11-11T13:20:15.203Z,24.47
2018-11-11T13:22:43.754Z,11.60
2018-11-11T13:25:12.851Z,7.03
2018-11-11T13:27:41.374Z,6.70
2018-11-11T13:30:11.485Z,7.30
2018-11-11T13:32:39.983Z,4.97
2018-11-11T13:35:10.419Z,13.67
2018-11-11T13:37:38.997Z,7.97
2018-11-11T13:40:10.250Z,10.60
2018-11-11T13:42:38.810Z,8.13
2018-11-11T13:45:10.028Z,6.43
2018-11-11T13:47:38.534Z,10.73
2018-11-11T13:50:09.629Z,10.03
2018-11-11T13:52:38.082Z,6.77
2018-11-11T13:55:07.987Z,7.63
2018-11-11T13:57:36.480Z,6.50
2018-11-11T14:00:07.655Z,5.87
2018-11-11T14:02:36.136Z,5.20
2018-11-11T14:05:04.857Z,6.77
2018-11-11T14:07:33.608Z,3.80
2018-11-11T14:10:02.396Z,12.83
2018-11-11T14:12:30.989Z,5.10
2018-11-11T14:14:59.473Z,26.87
2018-11-11T14:17:27.961Z,22.73
2018-11-11T14:19:56.482Z,40.40
2018-11-11T14:22:24.925Z,5.57
2018-11-11T14:24:53.770Z,4.17
2018-11-11T14:27:22.308Z,3.00
2018-11-11T14:29:50.900Z,5.53
2018-11-11T14:32:19.448Z,4.80
2018-11-11T14:34:48.071Z,7.83
2018-11-11T14:37:16.664Z,16.30
2018-11-11T14:39:45.113Z,9.10
2018-11-11T14:42:13.551Z,24.17
2018-11-11T14:44:42.313Z,29.83
2018-11-11T14:47:10.804Z,31.20
2018-11-11T14:49:39.282Z,3.90
2018-11-11T14:52:07.904Z,5.43
2018-11-11T14:54:36.258Z,58.57
2018-11-11T14:57:04.843Z,22.23
2018-11-11T14:59:33.427Z,15.60
2018-11-11T15:02:01.982Z,8.10
2018-11-11T15:04:30.414Z,7.63
2018-11-11T15:06:59.088Z,6.73
2018-11-11T15:09:27.582Z,5.37
2018-11-11T15:11:56.167Z,7.43
2018-11-11T15:14:24.592Z,6.20
2018-11-11T15:16:53.092Z,5.93
2018-11-11T15:19:21.662Z,5.17
2018-11-11T15:21:50.212Z,7.73
2018-11-11T15:24:18.694Z,11.27
2018-11-11T15:26:47.122Z,5.13
2018-11-11T15:29:15.584Z,6.93
2018-11-11T15:31:44.128Z,8.33
2018-11-11T15:34:12.577Z,6.47
2018-11-11T15:36:41.118Z,6.33
2018-11-11T15:39:10.842Z,5.27
2018-11-11T15:41:39.932Z,6.07
2018-11-11T15:44:08.334Z,4.47
2018-11-11T15:46:37.002Z,14.63
2018-11-11T15:49:05.591Z,6.33
2018-11-11T15:51:34.169Z,5.97
2018-11-11T15:54:02.962Z,4.23
2018-11-11T15:56:31.406Z,5.37
2018-11-11T15:58:59.946Z,4.37
2018-11-11T16:01:28.624Z,5.60
2018-11-11T16:03:57.076Z,7.10
2018-11-11T16:06:25.676Z,7.33
2018-11-11T16:08:54.071Z,8.13
2018-11-11T16:11:22.695Z,8.03
2018-11-11T16:13:51.202Z,8.27
2018-11-11T16:16:19.736Z,6.27
2018-11-11T16:18:48.286Z,5.43
2018-11-11T16:21:16.918Z,5.13
2018-11-11T16:23:45.461Z,4.57
2018-11-11T16:26:14.077Z,7.03
2018-11-11T16:28:42.578Z,6.90
2018-11-11T16:31:11.024Z,8.30
2018-11-11T16:33:39.500Z,6.70
2018-11-11T16:36:07.994Z,8.40
2018-11-11T16:38:36.437Z,5.37
2018-11-11T16:41:05.102Z,5.13
2018-11-11T16:43:33.423Z,8.10
2018-11-11T16:46:01.872Z,6.07
2018-11-11T16:48:30.366Z,6.93
2018-11-11T16:50:58.842Z,7.40
2018-11-11T16:53:27.317Z,6.27
2018-11-11T16:55:56.116Z,7.83
2018-11-11T16:58:24.702Z,9.83
2018-11-11T17:00:53.196Z,8.67
2018-11-11T17:03:22.062Z,7.30
2018-11-11T17:05:50.771Z,6.13
2018-11-11T17:08:19.457Z,8.47
2018-11-11T17:10:47.949Z,5.00
2018-11-11T17:13:16.642Z,6.63
2018-11-11T17:15:45.424Z,8.50
2018-11-11T17:18:13.998Z,7.37
2018-11-11T17:20:42.575Z,5.07
2018-11-11T17:23:11.187Z,6.37
2018-11-11T17:25:39.680Z,5.30
2018-11-11T17:28:08.256Z,7.30
2018-11-11T17:30:36.755Z,7.33
2018-11-11T17:33:05.916Z,8.83
2018-11-11T17:35:34.435Z,8.53
2018-11-11T17:38:03.016Z,7.03
2018-11-11T17:40:31.908Z,7.67
2018-11-11T17:43:01.182Z,8.67
2018-11-11T17:45:29.799Z,9.07
2018-11-11T17:47:58.493Z,7.07
2018-11-11T17:50:29.356Z,6.87
2018-11-11T17:52:58.535Z,6.43
2018-11-11T17:55:27.849Z,7.83
2018-11-11T17:57:56.432Z,7.07
2018-11-11T18:00:26.109Z,5.67
2018-11-11T18:02:55.138Z,8.87
2018-11-11T18:05:24.843Z,4.80
2018-11-11T18:07:53.432Z,7.77
2018-11-11T18:10:23.124Z,5.30
2018-11-11T18:12:51.584Z,8.03
2018-11-11T18:15:22.883Z,9.13
2018-11-11T18:17:51.384Z,6.37
2018-11-11T18:20:24.468Z,6.03
2018-11-11T18:22:53.817Z,5.07
2018-11-11T18:25:22.362Z,6.13
2018-11-11T18:27:51.346Z,6.00
2018-11-11T18:30:23.402Z,6.43
2018-11-11T18:32:51.995Z,9.73
2018-11-11T18:35:20.897Z,8.70
2018-11-11T18:37:49.469Z,8.40
2018-11-11T18:40:19.414Z,5.37
2018-11-11T18:42:48.194Z,4.77
2018-11-11T18:45:19.434Z,8.40
2018-11-11T18:47:48.939Z,6.23
2018-11-11T18:50:20.613Z,4.77
2018-11-11T18:52:49.350Z,8.03
2018-11-11T18:55:17.871Z,10.37
2018-11-11T18:57:46.497Z,9.10
2018-11-11T19:00:18.452Z,9.30
2018-11-11T19:02:48.120Z,6.80
2018-11-11T19:05:17.480Z,6.70
2018-11-11T19:07:46.354Z,17.83
2018-11-11T19:10:20.607Z,8.57
2018-11-11T19:12:50.304Z,6.50
2018-11-11T19:15:19.567Z,5.57
2018-11-11T19:17:48.771Z,4.30
2018-11-11T19:20:19.515Z,7.57
2018-11-11T19:22:48.093Z,9.13
2018-11-11T19:25:18.193Z,20.07
2018-11-11T19:27:48.243Z,7.77
2018-11-11T19:30:17.810Z,10.23
2018-11-11T19:32:46.941Z,5.87
2018-11-11T19:35:16.202Z,9.63
2018-11-11T19:37:46.101Z,10.13
2018-11-11T19:40:17.932Z,6.97
2018-11-11T19:42:46.821Z,7.13
2018-11-11T19:45:16.947Z,6.77
2018-11-11T19:47:45.633Z,6.83
2018-11-11T19:50:16.485Z,10.47
2018-11-11T19:52:46.701Z,4.53
2018-11-11T19:55:15.895Z,6.43
2018-11-11T19:57:44.448Z,9.07
2018-11-11T20:00:17.119Z,8.20
2018-11-11T20:02:46.886Z,7.50
2018-11-11T20:05:16.510Z,6.37
2018-11-11T20:07:46.282Z,9.37
2018-11-11T20:10:16.033Z,8.47
2018-11-11T20:12:44.873Z,10.33
2018-11-11T20:15:14.654Z,6.97
2018-11-11T20:17:43.761Z,6.37
2018-11-11T20:20:15.118Z,7.83
2018-11-11T20:22:43.684Z,10.33
2018-11-11T20:25:13.391Z,6.70
2018-11-11T20:27:42.424Z,5.67
2018-11-11T20:30:15.037Z,9.60
2018-11-11T20:32:44.131Z,7.07
2018-11-11T20:35:14.135Z,6.80
2018-11-11T20:37:43.477Z,8.47
2018-11-11T20:40:14.208Z,7.00
2018-11-11T20:42:43.276Z,8.87
2018-11-11T20:45:14.078Z,5.57
2018-11-11T20:47:43.388Z,5.63
2018-11-11T20:50:16.053Z,5.33
2018-11-11T20:52:45.339Z,7.53
2018-11-11T20:55:14.356Z,9.27
2018-11-11T20:57:43.226Z,7.60
2018-11-11T21:00:14.864Z,7.60
2018-11-11T21:02:44.000Z,6.83
2018-11-11T21:05:13.873Z,7.07
2018-11-11T21:07:42.722Z,9.93
2018-11-11T21:10:13.512Z,8.37
2018-11-11T21:12:42.433Z,5.57
2018-11-11T21:15:15.301Z,7.90
2018-11-11T21:17:44.207Z,6.73
2018-11-11T21:20:13.830Z,8.10
2018-11-11T21:22:42.791Z,6.83
2018-11-11T21:25:11.443Z,7.77
2018-11-11T21:27:40.790Z,4.97
2018-11-11T21:30:12.263Z,7.67
2018-11-11T21:32:41.053Z,6.37
2018-11-11T21:35:10.550Z,8.47
2018-11-11T21:37:39.689Z,9.03
2018-11-11T21:40:09.862Z,6.93
2018-11-11T21:42:40.205Z,8.50
2018-11-11T21:45:10.414Z,7.00
2018-11-11T21:47:39.017Z,10.30
2018-11-11T21:50:11.751Z,6.47
2018-11-11T21:52:44.388Z,6.97
2018-11-11T21:55:13.042Z,7.40
2018-11-11T21:57:41.656Z,5.77
2018-11-11T22:00:12.735Z,8.60
2018-11-11T22:02:41.368Z,11.70
2018-11-11T22:05:11.242Z,6.00
2018-11-11T22:07:39.980Z,7.60
2018-11-11T22:10:11.032Z,5.87
2018-11-11T22:12:39.553Z,10.33
2018-11-11T22:15:08.928Z,9.40
2018-11-11T22:17:37.535Z,7.63
2018-11-11T22:20:06.901Z,6.57
2018-11-11T22:22:35.514Z,6.37
2018-11-11T22:25:04.630Z,9.50
2018-11-11T22:27:33.401Z,8.07
2018-11-11T22:30:01.885Z,8.47
2018-11-11T22:32:30.366Z,9.13
2018-11-11T22:34:58.855Z,9.63
2018-11-11T22:37:27.270Z,14.40
2018-11-11T22:39:55.822Z,6.90
2018-11-11T22:42:24.466Z,10.43
2018-11-11T22:44:52.902Z,7.13
2018-11-11T22:47:21.384Z,10.07
2018-11-11T22:49:49.840Z,16.10
2018-11-11T22:52:18.357Z,9.03
2018-11-11T22:54:46.920Z,9.60
2018-11-11T22:57:15.421Z,8.63
2018-11-11T22:59:43.896Z,7.57
2018-11-11T23:02:12.483Z,8.50
2018-11-11T23:04:41.089Z,8.60
2018-11-11T23:07:09.547Z,7.93
2018-11-11T23:09:38.262Z,8.47
2018-11-11T23:12:06.822Z,7.63
2018-11-11T23:14:35.262Z,7.53
2018-11-11T23:17:04.028Z,10.57
2018-11-11T23:19:32.612Z,12.10
2018-11-11T23:22:01.532Z,8.73
2018-11-11T23:24:29.963Z,8.13
2018-11-11T23:26:58.475Z,10.60
2018-11-11T23:29:27.016Z,11.73
2018-11-11T23:31:55.452Z,9.20
2018-11-11T23:34:23.951Z,10.70
2018-11-11T23:36:52.416Z,12.00
2018-11-11T23:39:20.860Z,10.10
2018-11-11T23:41:49.383Z,13.30
2018-11-11T23:44:18.486Z,7.87
2018-11-11T23:46:46.925Z,11.83
2018-11-11T23:49:15.351Z,8.37
2018-11-11T23:51:43.835Z,8.07
2018-11-11T23:54:12.830Z,7.70
2018-11-11T23:56:41.268Z,8.00
2018-11-11T23:59:09.680Z,9.40
